Time;durP1;ratioP1;P1;durP2;ratioP2;P2;SDS_P1;SDS_P2;PMS_P1;PMS_P2;Temp;Humidity;BMP_temperature;BMP_pressure;BME280_temperature;BME280_humidity;BME280_pressure;Samples;Min_cycle;Max_cycle;Signal;HPM_P1;HPM_P2
2023/03/25 00:01:43;;;;;;;4.57;3.30;;;8.20;99.90;;;;;;6214791;23;20487;-82
2023/03/25 00:04:09;;;;;;;7.27;3.93;;;8.30;99.90;;;;;;6213944;23;20346;-82
2023/03/25 00:06:35;;;;;;;6.53;3.50;;;8.30;99.90;;;;;;6214179;23;20376;-83
2023/03/25 00:09:02;;;;;;;6.33;3.40;;;8.30;99.90;;;;;;6215249;23;20673;-82
2023/03/25 00:11:29;;;;;;;6.40;3.33;;;8.30;99.90;;;;;;6216773;23;20432;-81
2023/03/25 00:13:55;;;;;;;7.10;3.85;;;8.30;99.90;;;;;;6190890;23;20821;-82
2023/03/25 00:16:21;;;;;;;4.93;3.05;;;8.30;99.90;;;;;;6233512;23;20350;-82
2023/03/25 00:22:08;;;;;;;5.50;3.23;;;8.20;99.90;;;;;;6214475;23;20745;-82
2023/03/25 00:24:34;;;;;;;5.10;3.60;;;8.40;99.90;;;;;;6212728;23;20334;-81
2023/03/25 00:27:00;;;;;;;4.53;3.50;;;8.30;99.90;;;;;;6186243;23;20852;-82
2023/03/25 00:29:25;;;;;;;6.13;3.33;;;8.20;99.90;;;;;;6213234;23;20347;-82
2023/03/25 00:31:51;;;;;;;5.53;3.30;;;8.20;99.90;;;;;;6213595;23;20337;-82
2023/03/25 00:34:17;;;;;;;4.55;2.90;;;8.20;99.90;;;;;;6213359;23;20352;-81
2023/03/25 00:36:42;;;;;;;5.97;2.97;;;8.10;99.90;;;;;;6212663;23;20395;-81
2023/03/25 00:39:09;;;;;;;5.33;3.00;;;8.00;99.90;;;;;;6213185;23;20491;-82
2023/03/25 00:41:36;;;;;;;5.03;2.70;;;8.00;99.90;;;;;;6214249;23;20397;-81
2023/03/25 00:44:02;;;;;;;5.20;3.08;;;8.00;99.90;;;;;;6212777;23;20453;-82
2023/03/25 00:46:30;;;;;;;6.32;3.10;;;8.00;99.90;;;;;;6213993;23;20456;-81
2023/03/25 00:48:57;;;;;;;3.40;2.90;;;7.90;99.90;;;;;;6188455;23;20357;-81
2023/03/25 00:51:24;;;;;;;5.88;3.03;;;8.00;99.90;;;;;;6188031;23;20386;-81
2023/03/25 00:53:55;;;;;;;5.25;3.08;;;7.90;99.90;;;;;;6214613;23;20357;-81
2023/03/25 00:56:22;;;;;;;4.90;3.15;;;7.90;99.90;;;;;;6214333;23;20740;-84
2023/03/25 00:58:49;;;;;;;5.32;2.70;;;7.90;99.90;;;;;;6214969;23;20785;-82
2023/03/25 01:01:22;;;;;;;3.47;2.95;;;7.90;99.90;;;;;;6213285;23;20374;-82
2023/03/25 01:03:48;;;;;;;3.00;2.60;;;7.90;99.90;;;;;;6186545;23;20354;-82
2023/03/25 01:06:15;;;;;;;6.03;2.97;;;7.80;99.90;;;;;;6213031;23;20381;-82
2023/03/25 01:08:42;;;;;;;5.50;2.80;;;7.80;99.90;;;;;;6211843;23;20362;-82
2023/03/25 01:11:25;;;;;;;3.42;2.50;;;7.80;99.90;;;;;;6213729;23;20353;-82
2023/03/25 01:13:51;;;;;;;4.43;2.65;;;7.70;99.90;;;;;;6185739;23;20365;-82
2023/03/25 01:16:17;;;;;;;4.43;2.65;;;7.70;99.90;;;;;;6211680;23;20348;-82
2023/03/25 01:18:43;;;;;;;4.32;2.78;;;7.80;99.90;;;;;;6212877;23;20355;-82
2023/03/25 01:21:09;;;;;;;4.47;2.50;;;7.80;99.90;;;;;;6212262;23;20370;-82
2023/03/25 01:23:35;;;;;;;5.87;2.50;;;8.00;99.90;;;;;;6213963;23;20453;-81
2023/03/25 01:26:00;;;;;;;4.45;2.40;;;7.90;99.90;;;;;;6186558;23;20365;-82
2023/03/25 01:28:29;;;;;;;4.30;2.40;;;8.00;99.90;;;;;;6215985;23;20354;-82
2023/03/25 01:31:03;;;;;;;3.95;2.20;;;7.90;99.90;;;;;;6215622;23;20350;-81
2023/03/25 01:33:29;;;;;;;3.53;2.20;;;7.80;99.90;;;;;;6214543;23;20346;-82
2023/03/25 01:35:54;;;;;;;4.60;2.13;;;7.70;99.90;;;;;;6214845;23;20421;-82
2023/03/25 01:38:21;;;;;;;4.53;2.13;;;7.80;99.90;;;;;;6187285;23;20337;-82
2023/03/25 01:40:47;;;;;;;3.90;2.20;;;7.80;99.90;;;;;;6215257;23;20374;-82
2023/03/25 01:43:14;;;;;;;3.17;2.13;;;7.80;99.90;;;;;;6187109;23;20346;-81
2023/03/25 01:45:40;;;;;;;2.78;2.10;;;7.80;99.90;;;;;;6214668;23;20346;-82
2023/03/25 01:48:15;;;;;;;4.93;2.20;;;7.80;99.90;;;;;;6215279;23;20615;-81
2023/03/25 01:53:16;;;;;;;4.88;2.33;;;7.90;99.90;;;;;;6237826;22;20367;-81
2023/03/25 01:55:43;;;;;;;4.65;2.17;;;7.80;99.90;;;;;;6244372;23;20378;-81
2023/03/25 01:58:12;;;;;;;4.85;2.00;;;8.10;99.90;;;;;;6217260;23;20387;-82
2023/03/25 02:00:39;;;;;;;2.25;1.77;;;8.10;99.90;;;;;;6243598;23;20459;-82
2023/03/25 02:03:08;;;;;;;3.08;1.92;;;8.30;99.90;;;;;;6245014;23;20349;-82
2023/03/25 02:06:06;;;;;;;4.10;1.98;;;8.30;99.90;;;;;;6244725;23;20345;-82
2023/03/25 02:08:36;;;;;;;5.65;1.95;;;8.30;99.90;;;;;;6217391;23;20356;-82
2023/03/25 02:11:03;;;;;;;2.85;1.73;;;8.10;99.90;;;;;;6243937;23;20371;-81
2023/03/25 02:13:29;;;;;;;4.47;2.03;;;8.10;99.90;;;;;;6245770;23;20379;-81
2023/03/25 02:16:07;;;;;;;2.67;1.77;;;8.10;99.90;;;;;;6245833;23;20723;-82
2023/03/25 02:19:00;;;;;;;5.07;1.85;;;8.20;99.90;;;;;;6246789;23;20853;-82
2023/03/25 02:21:53;;;;;;;3.00;1.60;;;8.30;99.90;;;;;;6247217;23;20844;-82
2023/03/25 02:24:42;;;;;;;3.60;1.77;;;8.40;99.90;;;;;;6221023;23;20352;-82
2023/03/25 02:27:27;;;;;;;3.65;1.88;;;8.40;99.90;;;;;;6258945;22;20395;-81
2023/03/25 02:30:12;;;;;;;2.47;1.80;;;8.40;99.90;;;;;;6241041;23;20359;-82
2023/03/25 02:32:59;;;;;;;5.20;1.80;;;8.50;99.90;;;;;;6253307;23;20347;-82
2023/03/25 02:35:27;;;;;;;4.45;2.10;;;8.50;99.90;;;;;;6243111;23;20340;-82
2023/03/25 02:38:13;;;;;;;4.13;1.90;;;8.40;99.90;;;;;;6244563;23;20372;-82
2023/03/25 02:41:10;;;;;;;2.42;1.52;;;8.50;99.90;;;;;;6244060;23;20455;-81
2023/03/25 02:43:58;;;;;;;3.80;1.70;;;8.50;99.90;;;;;;6174696;23;20348;-83
2023/03/25 02:46:26;;;;;;;3.50;1.90;;;8.40;99.90;;;;;;6242672;23;20771;-82
2023/03/25 02:49:42;;;;;;;3.35;1.83;;;8.40;99.90;;;;;;6242973;23;20348;-81
2023/03/25 02:52:13;;;;;;;3.85;2.10;;;8.50;99.90;;;;;;6107195;23;20373;-82
2023/03/25 02:54:43;;;;;;;4.00;1.80;;;8.50;99.90;;;;;;6066963;23;20361;-81
2023/03/25 02:57:12;;;;;;;3.25;1.73;;;8.50;99.90;;;;;;6139830;23;20357;-82
2023/03/25 02:59:39;;;;;;;2.67;1.80;;;8.50;99.90;;;;;;6210837;23;20342;-82
2023/03/25 03:02:10;;;;;;;3.88;2.08;;;8.50;99.90;;;;;;6210240;23;20341;-82
2023/03/25 03:04:53;;;;;;;4.03;2.22;;;8.40;99.90;;;;;;6212948;23;20422;-82
2023/03/25 03:07:31;;;;;;;2.08;1.85;;;8.40;99.90;;;;;;6184261;23;20360;-80
2023/03/25 03:10:12;;;;;;;3.95;2.20;;;8.40;99.90;;;;;;6212367;23;20346;-82
2023/03/25 03:12:54;;;;;;;5.60;2.30;;;8.30;99.90;;;;;;6212811;23;20441;-81
2023/03/25 03:15:27;;;;;;;5.97;3.03;;;8.20;99.90;;;;;;6212514;23;20346;-82
2023/03/25 03:18:25;;;;;;;6.50;3.00;;;8.10;99.90;;;;;;6186457;23;20360;-81
2023/03/25 03:20:51;;;;;;;4.75;2.72;;;8.10;99.90;;;;;;6216960;23;20408;-81
2023/03/25 03:23:27;;;;;;;5.27;2.57;;;8.00;99.90;;;;;;6219855;23;20350;-81
2023/03/25 03:26:16;;;;;;;5.20;2.60;;;8.10;99.90;;;;;;6189306;23;20350;-81
2023/03/25 03:29:00;;;;;;;5.23;2.40;;;8.10;99.90;;;;;;6210596;23;20362;-82
2023/03/25 03:31:26;;;;;;;5.50;2.45;;;8.20;99.90;;;;;;6213215;23;20338;-82
2023/03/25 03:34:25;;;;;;;4.10;2.58;;;8.10;99.90;;;;;;6210492;23;20408;-82
2023/03/25 03:36:52;;;;;;;5.30;2.60;;;8.10;99.90;;;;;;6210526;23;20491;-81
2023/03/25 03:39:21;;;;;;;5.38;2.72;;;8.10;99.90;;;;;;6211411;23;20342;-82
2023/03/25 03:41:52;;;;;;;5.03;2.67;;;8.10;99.90;;;;;;6211992;23;20377;-82
2023/03/25 03:44:27;;;;;;;4.28;2.30;;;8.10;99.90;;;;;;6213446;23;20400;-82
2023/03/25 03:47:01;;;;;;;4.05;2.38;;;8.20;99.90;;;;;;6214604;23;20371;-83
2023/03/25 03:49:34;;;;;;;4.70;2.27;;;8.20;99.90;;;;;;6213933;23;20471;-82
2023/03/25 03:52:46;;;;;;;4.40;2.30;;;8.10;99.90;;;;;;6227529;23;20372;-83
2023/03/25 03:55:22;;;;;;;4.68;2.42;;;8.20;99.90;;;;;;6244474;23;20371;-83
2023/03/25 03:58:01;;;;;;;3.38;2.13;;;8.20;99.90;;;;;;6247046;23;20408;-82
2023/03/25 04:00:42;;;;;;;5.90;2.40;;;8.20;99.90;;;;;;6247928;23;20372;-81
2023/03/25 04:03:23;;;;;;;5.80;2.35;;;8.20;99.90;;;;;;6248863;23;20340;-81
2023/03/25 04:06:06;;;;;;;3.92;2.42;;;8.20;99.90;;;;;;6220261;23;20360;-81
2023/03/25 04:08:50;;;;;;;5.00;2.20;;;8.20;99.90;;;;;;6239931;23;20703;-81
2023/03/25 04:11:22;;;;;;;3.80;2.20;;;8.20;99.90;;;;;;6244882;23;20722;-82
2023/03/25 04:13:51;;;;;;;4.75;2.58;;;8.20;99.90;;;;;;6219700;23;20353;-82
2023/03/25 04:16:17;;;;;;;6.53;2.10;;;8.20;99.90;;;;;;6220660;23;20374;-82
2023/03/25 04:18:46;;;;;;;4.25;2.47;;;8.10;99.90;;;;;;6248534;23;20343;-83
2023/03/25 04:21:14;;;;;;;5.43;2.60;;;8.10;99.90;;;;;;6223315;23;20391;-82
2023/03/25 04:23:40;;;;;;;4.63;2.30;;;8.10;99.90;;;;;;6248117;23;20347;-81
2023/03/25 04:26:06;;;;;;;5.80;2.20;;;8.10;99.90;;;;;;6248884;23;20426;-83
2023/03/25 04:28:32;;;;;;;4.65;2.33;;;8.10;99.90;;;;;;6245925;23;20376;-83
2023/03/25 04:30:59;;;;;;;3.83;2.20;;;8.00;99.90;;;;;;6219688;23;20352;-82
2023/03/25 04:33:30;;;;;;;4.25;2.28;;;7.90;99.90;;;;;;6217193;23;20679;-81
2023/03/25 04:35:56;;;;;;;5.20;2.40;;;7.80;99.90;;;;;;6216907;23;20802;-82
2023/03/25 04:38:22;;;;;;;5.65;2.20;;;7.80;99.90;;;;;;6245637;23;20341;-81
2023/03/25 04:40:47;;;;;;;5.13;2.35;;;7.80;99.90;;;;;;6243427;23;20768;-82
2023/03/25 04:43:14;;;;;;;5.30;2.28;;;7.90;99.90;;;;;;6242454;23;20344;-81
2023/03/25 04:45:48;;;;;;;5.63;2.27;;;7.80;99.90;;;;;;6243569;23;20389;-81
2023/03/25 04:48:30;;;;;;;4.45;2.30;;;7.80;99.90;;;;;;6215485;23;20344;-82
2023/03/25 04:51:02;;;;;;;5.72;2.83;;;7.90;99.90;;;;;;6243602;23;20341;-82
2023/03/25 04:53:29;;;;;;;5.25;2.78;;;8.00;99.90;;;;;;6215814;23;20363;-83
2023/03/25 04:55:55;;;;;;;6.65;3.03;;;8.00;99.90;;;;;;6243256;23;20375;-83
2023/03/25 04:58:21;;;;;;;5.45;2.90;;;8.00;99.90;;;;;;6242976;23;20340;-83
2023/03/25 05:00:50;;;;;;;5.73;2.10;;;8.00;99.90;;;;;;6247984;23;20394;-83
2023/03/25 05:03:22;;;;;;;5.90;2.13;;;8.00;99.90;;;;;;6247959;23;20389;-82
2023/03/25 05:05:49;;;;;;;5.15;1.80;;;8.00;99.90;;;;;;6223760;23;20344;-83
2023/03/25 05:08:14;;;;;;;4.93;2.00;;;8.00;99.90;;;;;;6222003;23;20791;-83
2023/03/25 05:10:42;;;;;;;3.17;1.93;;;8.10;99.90;;;;;;6266190;22;20396;-82
2023/03/25 05:13:08;;;;;;;4.43;1.77;;;8.10;99.90;;;;;;6238646;23;20340;-82
2023/03/25 05:15:38;;;;;;;5.47;1.70;;;8.10;99.90;;;;;;6250619;23;20383;-83
2023/03/25 05:18:12;;;;;;;4.25;2.00;;;8.20;99.90;;;;;;6246292;23;20340;-82
2023/03/25 05:20:40;;;;;;;4.57;2.00;;;8.20;99.90;;;;;;6215984;23;20379;-82
2023/03/25 05:23:11;;;;;;;3.23;1.80;;;8.30;99.90;;;;;;6216352;23;20409;-84
2023/03/25 05:25:41;;;;;;;4.43;1.80;;;8.30;99.90;;;;;;6243896;23;20341;-83
2023/03/25 05:28:12;;;;;;;5.95;2.13;;;8.40;99.90;;;;;;6219473;23;20400;-82
2023/03/25 05:30:40;;;;;;;3.80;1.80;;;8.40;99.90;;;;;;6218881;23;20370;-82
2023/03/25 05:33:09;;;;;;;4.03;1.83;;;8.40;99.90;;;;;;6215737;23;20429;-82
2023/03/25 05:35:36;;;;;;;4.32;1.70;;;8.40;99.90;;;;;;6242449;23;20803;-84
2023/03/25 05:38:06;;;;;;;2.63;1.50;;;8.50;99.90;;;;;;6244915;23;20820;-83
2023/03/25 05:40:33;;;;;;;5.32;1.70;;;8.50;99.90;;;;;;6219614;23;20372;-83
2023/03/25 05:42:59;;;;;;;2.80;1.65;;;8.60;99.90;;;;;;6219806;23;20759;-83
2023/03/25 05:45:25;;;;;;;4.72;1.75;;;8.60;99.90;;;;;;6246496;23;20399;-82
2023/03/25 05:47:51;;;;;;;3.60;1.80;;;8.70;99.90;;;;;;6246263;23;20336;-83
2023/03/25 05:50:17;;;;;;;4.10;1.60;;;8.60;99.90;;;;;;6245329;23;20345;-83
2023/03/25 05:52:42;;;;;;;4.20;1.60;;;8.60;99.90;;;;;;6217108;23;20382;-84
2023/03/25 05:55:18;;;;;;;5.37;1.70;;;8.70;99.90;;;;;;6217697;23;20748;-83
2023/03/25 05:57:45;;;;;;;3.80;1.60;;;8.80;99.90;;;;;;6217649;23;20345;-83
2023/03/25 06:00:12;;;;;;;5.00;1.70;;;8.90;99.90;;;;;;6244130;23;20768;-82
2023/03/25 06:02:41;;;;;;;3.87;1.70;;;8.90;99.90;;;;;;6244234;23;20347;-82
2023/03/25 06:05:09;;;;;;;4.45;1.85;;;8.90;99.90;;;;;;6243341;23;20371;-84
2023/03/25 06:07:36;;;;;;;4.00;2.42;;;8.80;99.90;;;;;;6216378;23;20430;-83
2023/03/25 06:10:03;;;;;;;4.20;2.92;;;8.90;99.90;;;;;;6248861;23;20336;-82
2023/03/25 06:12:31;;;;;;;3.22;1.60;;;8.90;99.90;;;;;;6249809;23;20338;-82
2023/03/25 06:14:58;;;;;;;2.77;1.40;;;9.00;99.90;;;;;;6224481;23;20811;-82
2023/03/25 06:17:25;;;;;;;3.57;1.40;;;9.10;99.90;;;;;;6249213;23;20374;-81
2023/03/25 06:19:51;;;;;;;4.65;1.40;;;9.10;99.90;;;;;;6221654;23;20402;-82
2023/03/25 06:22:20;;;;;;;4.63;1.80;;;9.10;99.90;;;;;;6217085;23;21147;-83
2023/03/25 06:24:47;;;;;;;4.30;2.37;;;9.00;99.90;;;;;;6214732;23;20358;-83
2023/03/25 06:27:16;;;;;;;2.85;1.40;;;8.90;99.90;;;;;;6213219;23;20818;-82
2023/03/25 06:29:42;;;;;;;3.65;1.55;;;9.10;99.90;;;;;;6241849;23;20819;-84
2023/03/25 06:32:11;;;;;;;3.58;1.50;;;9.30;99.90;;;;;;6243788;23;20420;-82
2023/03/25 06:34:38;;;;;;;3.47;1.55;;;9.50;99.90;;;;;;6241528;23;20352;-82
2023/03/25 06:37:05;;;;;;;4.97;1.98;;;9.60;99.90;;;;;;6241913;23;20418;-81
2023/03/25 06:39:32;;;;;;;3.65;1.50;;;9.80;99.90;;;;;;6214200;23;20344;-82
2023/03/25 06:42:01;;;;;;;2.73;1.40;;;9.90;99.90;;;;;;6213610;23;20352;-81
2023/03/25 06:44:27;;;;;;;3.33;1.50;;;10.00;99.90;;;;;;6211869;23;20483;-83
2023/03/25 06:46:53;;;;;;;4.13;1.98;;;10.00;99.90;;;;;;6212665;23;20383;-83
2023/03/25 06:49:19;;;;;;;3.17;1.42;;;10.10;99.90;;;;;;6209760;23;20352;-83
2023/03/25 06:51:46;;;;;;;3.47;1.50;;;10.10;99.90;;;;;;6237966;23;20703;-82
2023/03/25 06:54:11;;;;;;;4.90;1.73;;;10.20;99.90;;;;;;6239659;23;20449;-83
2023/03/25 06:56:37;;;;;;;2.38;1.30;;;10.30;99.90;;;;;;6239768;23;20340;-83
2023/03/25 06:59:04;;;;;;;4.37;1.50;;;10.40;99.90;;;;;;6213034;23;20352;-83
2023/03/25 07:01:30;;;;;;;3.73;1.53;;;10.60;99.90;;;;;;6240146;23;20379;-83
2023/03/25 07:03:56;;;;;;;3.77;1.70;;;10.80;99.90;;;;;;6241957;23;20337;-84
2023/03/25 07:06:23;;;;;;;3.45;1.98;;;11.30;99.90;;;;;;6213799;23;20360;-83
2023/03/25 07:08:49;;;;;;;1.95;1.30;;;11.80;99.90;;;;;;6214316;23;20353;-82
2023/03/25 07:11:19;;;;;;;2.67;1.35;;;12.10;99.90;;;;;;6213868;23;20387;-84
2023/03/25 07:13:45;;;;;;;3.45;1.40;;;12.80;99.90;;;;;;6213478;23;20363;-83
2023/03/25 07:16:10;;;;;;;2.45;1.20;;;12.60;99.90;;;;;;6213928;23;20352;-84
2023/03/25 07:18:36;;;;;;;5.37;1.57;;;12.70;99.90;;;;;;6242330;23;20358;-83
2023/03/25 07:21:03;;;;;;;2.88;1.30;;;13.20;99.90;;;;;;6240181;23;20712;-83
2023/03/25 07:23:29;;;;;;;5.93;1.50;;;13.30;99.90;;;;;;6243148;23;20344;-83
2023/03/25 07:25:55;;;;;;;2.97;1.30;;;13.60;99.90;;;;;;6242625;23;20656;-83
2023/03/25 07:28:22;;;;;;;3.08;1.23;;;14.20;99.90;;;;;;6216342;23;20856;-83
2023/03/25 07:30:47;;;;;;;5.28;1.40;;;13.70;99.90;;;;;;6242179;23;20710;-82
2023/03/25 07:33:13;;;;;;;2.92;1.48;;;13.40;99.90;;;;;;6243094;23;20805;-84
2023/03/25 07:35:39;;;;;;;4.93;1.60;;;12.60;99.90;;;;;;6242354;23;20879;-82
2023/03/25 07:38:05;;;;;;;3.85;1.50;;;12.30;99.90;;;;;;6215291;23;20428;-83
2023/03/25 07:40:30;;;;;;;3.20;1.33;;;12.70;99.90;;;;;;6242351;23;20376;-83
2023/03/25 07:42:56;;;;;;;4.37;1.60;;;13.50;99.90;;;;;;6243100;23;20886;-82
2023/03/25 07:45:22;;;;;;;2.58;1.42;;;13.20;99.90;;;;;;6241698;23;20344;-82
2023/03/25 07:47:49;;;;;;;4.22;1.52;;;12.40;99.90;;;;;;6243076;23;20332;-82
2023/03/25 07:50:20;;;;;;;4.03;1.60;;;11.70;99.90;;;;;;6242915;23;20390;-82
2023/03/25 07:52:45;;;;;;;3.47;1.50;;;11.40;99.90;;;;;;6217890;23;20429;-81
2023/03/25 07:55:11;;;;;;;4.13;1.70;;;11.50;99.90;;;;;;6246407;23;20383;-82
2023/03/25 07:57:40;;;;;;;3.80;1.50;;;11.40;99.90;;;;;;6246412;23;20355;-83
2023/03/25 08:00:08;;;;;;;3.53;1.50;;;11.20;99.90;;;;;;6258377;23;20656;-81
2023/03/25 08:02:34;;;;;;;2.75;1.70;;;11.30;99.90;;;;;;6267670;23;20348;-82
2023/03/25 08:04:59;;;;;;;3.70;1.50;;;11.30;99.90;;;;;;6255827;23;20894;-82
2023/03/25 08:07:27;;;;;;;3.15;1.98;;;11.50;99.90;;;;;;6243713;23;20687;-83
2023/03/25 08:09:53;;;;;;;3.90;1.45;;;11.50;99.90;;;;;;6215810;23;20406;-83
2023/03/25 08:12:19;;;;;;;4.73;1.33;;;11.50;99.90;;;;;;6215849;23;20387;-82
2023/03/25 08:14:45;;;;;;;4.85;1.60;;;11.50;99.90;;;;;;6243211;23;20349;-82
2023/03/25 08:17:11;;;;;;;2.55;1.30;;;11.20;99.90;;;;;;6242095;23;20344;-82
2023/03/25 08:19:36;;;;;;;6.90;1.70;;;11.10;99.90;;;;;;6215851;23;20344;-81
2023/03/25 08:22:02;;;;;;;3.65;1.60;;;11.30;99.90;;;;;;6243781;23;20688;-82
2023/03/25 08:24:31;;;;;;;3.20;1.55;;;11.60;99.90;;;;;;6242207;23;20336;-82
2023/03/25 08:26:59;;;;;;;2.95;1.30;;;11.80;99.90;;;;;;6213758;23;20395;-82
2023/03/25 08:29:26;;;;;;;2.58;1.20;;;11.80;99.90;;;;;;6214178;23;20344;-82
2023/03/25 08:31:53;;;;;;;1.92;0.93;;;11.80;99.90;;;;;;6242045;23;20373;-83
2023/03/25 08:34:20;;;;;;;3.42;1.17;;;11.70;99.90;;;;;;6241370;23;20706;-83
2023/03/25 08:36:46;;;;;;;7.60;1.55;;;11.60;99.90;;;;;;6240457;23;20419;-82
2023/03/25 08:39:16;;;;;;;2.78;1.20;;;11.40;99.90;;;;;;6212725;23;20407;-79
2023/03/25 08:41:43;;;;;;;3.88;1.50;;;11.10;99.90;;;;;;6241315;23;20479;-82
2023/03/25 08:44:10;;;;;;;4.18;1.33;;;11.00;99.90;;;;;;6241830;23;20360;-83
2023/03/25 08:46:36;;;;;;;4.95;1.65;;;10.70;99.90;;;;;;6213047;23;20422;-83
2023/03/25 08:49:03;;;;;;;4.00;1.70;;;10.60;99.90;;;;;;6241415;23;20344;-82
2023/03/25 08:51:29;;;;;;;4.07;1.63;;;10.40;99.90;;;;;;6214246;23;20365;-83
2023/03/25 08:53:55;;;;;;;3.13;1.77;;;10.40;99.90;;;;;;6214354;23;20845;-82
2023/03/25 08:56:21;;;;;;;4.05;1.60;;;10.70;99.90;;;;;;6241449;23;20376;-83
2023/03/25 08:58:47;;;;;;;3.60;1.50;;;11.00;99.90;;;;;;6241933;23;20430;-82
2023/03/25 09:01:13;;;;;;;3.13;1.40;;;11.40;99.90;;;;;;6241513;23;20369;-83
2023/03/25 09:03:39;;;;;;;3.60;1.38;;;12.10;99.90;;;;;;6235806;23;20352;-82
2023/03/25 09:06:06;;;;;;;2.67;1.33;;;12.80;99.90;;;;;;6241122;23;20375;-83
2023/03/25 09:08:32;;;;;;;2.75;1.50;;;13.20;99.90;;;;;;6214194;23;20376;-82
2023/03/25 09:10:58;;;;;;;2.92;1.65;;;13.40;99.90;;;;;;6242247;23;20684;-83
2023/03/25 09:13:24;;;;;;;1.65;1.00;;;13.80;99.90;;;;;;6241789;23;20345;-83
2023/03/25 09:15:50;;;;;;;2.08;1.20;;;14.50;99.90;;;;;;6241380;23;20423;-83
2023/03/25 09:18:16;;;;;;;2.65;1.10;;;14.10;99.90;;;;;;6214190;23;20384;-82
2023/03/25 09:20:42;;;;;;;2.47;1.30;;;13.70;99.90;;;;;;6212246;23;20372;-84
2023/03/25 09:23:11;;;;;;;2.35;1.33;;;14.70;99.90;;;;;;6241412;23;20653;-84
2023/03/25 09:25:37;;;;;;;3.28;1.15;;;14.90;99.90;;;;;;6240809;23;20332;-85
2023/03/25 09:28:03;;;;;;;1.98;1.10;;;15.20;99.90;;;;;;6240217;23;20814;-82
2023/03/25 09:30:29;;;;;;;3.60;1.25;;;15.30;99.90;;;;;;6241399;23;20348;-83
2023/03/25 09:32:55;;;;;;;2.50;1.13;;;15.60;99.90;;;;;;6241422;23;20341;-83
2023/03/25 09:35:20;;;;;;;5.00;1.60;;;15.70;99.90;;;;;;6241924;23;20415;-84
2023/03/25 09:37:46;;;;;;;3.10;1.80;;;16.00;99.90;;;;;;6241412;23;20343;-83
2023/03/25 09:40:18;;;;;;;2.88;1.30;;;14.60;99.90;;;;;;6213938;23;20368;-82
2023/03/25 09:42:57;;;;;;;2.60;1.40;;;13.60;99.90;;;;;;6241591;23;20349;-83
2023/03/25 09:45:31;;;;;;;3.85;1.75;;;13.60;99.90;;;;;;6240112;23;20360;-83
2023/03/25 09:48:02;;;;;;;2.95;1.30;;;13.50;99.90;;;;;;6240632;23;20370;-82
2023/03/25 09:50:33;;;;;;;2.67;1.30;;;12.90;99.90;;;;;;6241054;23;20775;-83
2023/03/25 09:53:24;;;;;;;3.45;1.40;;;12.70;99.90;;;;;;6241283;23;20431;-82
2023/03/25 09:55:51;;;;;;;2.97;1.55;;;13.10;99.90;;;;;;6228609;23;20400;-83
2023/03/25 09:58:35;;;;;;;2.78;1.13;;;13.60;99.90;;;;;;6240342;23;20426;-84
2023/03/25 10:01:18;;;;;;;5.50;1.40;;;14.80;99.90;;;;;;6240985;23;20386;-84
2023/03/25 10:04:00;;;;;;;2.13;0.98;;;15.60;99.90;;;;;;6214061;23;20383;-84
2023/03/25 10:06:26;;;;;;;4.55;1.38;;;14.30;99.90;;;;;;6212903;23;20349;-84
2023/03/25 10:09:29;;;;;;;3.30;1.00;;;13.70;99.90;;;;;;6213826;23;20827;-83
2023/03/25 10:12:02;;;;;;;1.70;1.00;;;14.20;99.90;;;;;;6242137;23;20352;-83
2023/03/25 10:14:34;;;;;;;3.23;1.00;;;14.80;99.90;;;;;;6241972;23;20353;-83
2023/03/25 10:17:55;;;;;;;3.30;1.02;;;14.90;99.90;;;;;;6241404;23;20407;-83
2023/03/25 10:20:30;;;;;;;3.35;1.20;;;14.60;99.90;;;;;;6148366;23;20428;-83
2023/03/25 10:23:22;;;;;;;1.95;1.20;;;14.50;99.90;;;;;;6149330;23;20349;-82
2023/03/25 10:25:55;;;;;;;2.20;1.10;;;14.10;99.90;;;;;;6216664;23;20352;-83
2023/03/25 10:28:29;;;;;;;3.15;1.20;;;14.10;99.90;;;;;;6240709;23;20348;-83
2023/03/25 10:30:55;;;;;;;2.78;1.25;;;14.40;99.90;;;;;;6215732;23;20355;-82
2023/03/25 10:33:33;;;;;;;2.05;1.30;;;14.80;99.90;;;;;;6243076;23;20348;-83
2023/03/25 10:36:01;;;;;;;3.50;1.17;;;14.80;99.90;;;;;;6217376;23;20422;-84
2023/03/25 10:38:29;;;;;;;2.25;1.02;;;14.90;99.90;;;;;;6216090;23;20348;-83
2023/03/25 10:41:19;;;;;;;2.88;1.50;;;14.90;99.90;;;;;;6216494;23;20455;-83
2023/03/25 10:43:45;;;;;;;4.47;1.40;;;14.30;99.90;;;;;;6252321;23;20377;-83
2023/03/25 10:46:38;;;;;;;1.83;1.40;;;15.00;99.90;;;;;;6265380;23;20341;-83
2023/03/25 10:49:04;;;;;;;2.63;1.10;;;15.40;99.90;;;;;;6254690;23;20403;-82
2023/03/25 10:51:33;;;;;;;4.40;1.55;;;14.90;99.90;;;;;;6244402;23;20406;-82
2023/03/25 10:53:59;;;;;;;5.23;1.13;;;14.40;99.90;;;;;;6213057;23;20364;-81
2023/03/25 10:56:41;;;;;;;2.30;1.10;;;14.30;99.90;;;;;;6242989;23;20431;-82
2023/03/25 10:59:34;;;;;;;2.15;1.15;;;14.10;99.90;;;;;;6242594;23;20344;-83
2023/03/25 11:02:11;;;;;;;1.83;0.98;;;14.20;99.90;;;;;;6215839;23;20830;-83
2023/03/25 11:04:41;;;;;;;3.65;1.42;;;14.80;99.90;;;;;;6243190;23;20336;-82
2023/03/25 11:07:26;;;;;;;1.83;1.15;;;14.50;99.90;;;;;;6241806;23;20659;-82
2023/03/25 11:09:51;;;;;;;2.25;1.15;;;14.40;99.90;;;;;;6242907;23;20346;-82
2023/03/25 11:12:21;;;;;;;2.43;1.40;;;13.80;99.90;;;;;;6238085;23;20360;-84
2023/03/25 11:14:56;;;;;;;4.13;1.80;;;13.00;99.90;;;;;;6242084;23;20773;-82
2023/03/25 11:17:25;;;;;;;1.38;1.20;;;13.90;99.90;;;;;;6240463;23;20667;-83
2023/03/25 11:19:51;;;;;;;2.22;1.10;;;15.00;99.90;;;;;;6212182;23;20348;-82
2023/03/25 11:22:28;;;;;;;2.40;1.20;;;15.40;99.90;;;;;;6241110;23;20827;-83
2023/03/25 11:25:05;;;;;;;3.63;1.30;;;14.70;99.90;;;;;;6241710;23;20345;-83
2023/03/25 11:27:44;;;;;;;4.75;1.55;;;14.10;99.90;;;;;;6240364;23;20402;-83
2023/03/25 11:30:16;;;;;;;2.15;1.30;;;14.10;99.90;;;;;;6241346;23;20348;-83
2023/03/25 11:32:41;;;;;;;3.40;1.60;;;14.10;99.90;;;;;;6215517;23;20374;-84
2023/03/25 11:35:16;;;;;;;1.70;1.30;;;14.10;99.90;;;;;;6243333;23;20340;-82
2023/03/25 11:37:45;;;;;;;3.17;1.40;;;14.20;99.90;;;;;;6215233;23;20416;-82
2023/03/25 11:40:16;;;;;;;2.00;1.30;;;14.20;99.90;;;;;;6242801;23;20430;-83
2023/03/25 11:42:50;;;;;;;2.78;1.60;;;14.30;99.90;;;;;;6215262;23;20446;-83
2023/03/25 11:45:22;;;;;;;2.72;1.20;;;14.00;99.90;;;;;;6216282;23;20391;-85
2023/03/25 11:47:49;;;;;;;4.05;1.50;;;13.70;99.90;;;;;;6242351;23;20340;-84
2023/03/25 11:50:24;;;;;;;2.28;1.33;;;13.30;99.90;;;;;;6210325;23;21215;-83
2023/03/25 11:53:01;;;;;;;2.58;1.70;;;12.90;99.90;;;;;;6216553;23;20889;-83
2023/03/25 11:55:55;;;;;;;2.70;1.60;;;13.10;99.90;;;;;;6242989;23;20451;-83
2023/03/25 11:58:27;;;;;;;3.45;1.70;;;13.20;99.90;;;;;;6238097;23;20383;-84
2023/03/25 12:01:02;;;;;;;2.72;1.50;;;13.40;99.90;;;;;;6216164;23;20743;-84
2023/03/25 12:03:30;;;;;;;2.97;1.45;;;13.60;99.90;;;;;;6215574;23;20379;-82
2023/03/25 12:05:58;;;;;;;1.98;1.20;;;13.60;99.90;;;;;;6242963;23;20337;-85
2023/03/25 12:08:27;;;;;;;2.42;1.25;;;13.50;99.90;;;;;;6242850;23;20351;-85
2023/03/25 12:11:10;;;;;;;2.10;1.33;;;13.60;99.90;;;;;;6215959;23;20455;-83
2023/03/25 12:13:51;;;;;;;2.80;1.27;;;13.80;99.90;;;;;;6243157;23;20462;-84
2023/03/25 12:16:40;;;;;;;3.15;1.48;;;13.90;99.90;;;;;;6242979;23;20341;-84
2023/03/25 12:19:41;;;;;;;3.83;1.10;;;13.70;99.90;;;;;;6242615;23;20366;-84
2023/03/25 12:22:07;;;;;;;2.83;1.40;;;13.60;99.90;;;;;;6243654;23;20456;-82
2023/03/25 12:24:44;;;;;;;2.53;1.10;;;13.60;99.90;;;;;;6215220;23;20746;-82
2023/03/25 12:27:15;;;;;;;2.73;1.20;;;13.00;99.90;;;;;;6242496;23;20349;-83
2023/03/25 12:29:57;;;;;;;1.77;1.02;;;12.90;99.90;;;;;;6242662;23;20590;-83
2023/03/25 12:32:52;;;;;;;1.92;1.08;;;13.10;99.90;;;;;;6243866;23;20719;-83
2023/03/25 12:35:52;;;;;;;1.90;1.10;;;13.40;99.90;;;;;;6215017;23;20355;-83
2023/03/25 12:38:38;;;;;;;1.57;0.90;;;13.30;99.90;;;;;;6243611;23;20355;-82
2023/03/25 12:41:38;;;;;;;1.05;0.70;;;13.50;99.90;;;;;;6242729;23;20368;-84
2023/03/25 12:44:18;;;;;;;1.90;0.88;;;13.80;99.90;;;;;;6242684;23;20729;-85
2023/03/25 12:47:12;;;;;;;2.10;0.80;;;13.70;99.90;;;;;;6214879;23;20459;-84
2023/03/25 12:49:56;;;;;;;1.50;0.70;;;13.50;99.90;;;;;;6239120;23;20417;-83
2023/03/25 12:52:42;;;;;;;1.38;0.90;;;13.60;99.90;;;;;;6213519;23;20375;-82
2023/03/25 12:55:08;;;;;;;2.80;1.13;;;13.20;99.90;;;;;;6216342;23;20807;-84
2023/03/25 12:58:03;;;;;;;1.50;0.90;;;12.70;99.90;;;;;;6216807;23;20354;-84
2023/03/25 13:00:55;;;;;;;1.90;0.70;;;12.80;99.90;;;;;;6217647;23;20376;-83
2023/03/25 13:03:35;;;;;;;1.55;0.77;;;13.40;99.90;;;;;;6216904;23;20889;-85
2023/03/25 13:06:11;;;;;;;1.33;0.73;;;13.60;99.90;;;;;;6216017;23;20360;-85
2023/03/25 13:09:03;;;;;;;1.48;0.80;;;13.10;99.90;;;;;;6242004;23;20341;-83
2023/03/25 13:11:32;;;;;;;1.90;1.08;;;12.70;99.90;;;;;;6245183;23;20345;-83
2023/03/25 13:14:02;;;;;;;2.25;0.88;;;12.60;99.90;;;;;;6243866;23;20691;-82
2023/03/25 13:16:30;;;;;;;1.40;0.80;;;12.70;99.90;;;;;;6243470;22;20715;-83
2023/03/25 13:19:01;;;;;;;1.90;0.90;;;12.60;99.90;;;;;;6219301;23;20347;-80
2023/03/25 13:21:51;;;;;;;1.30;0.70;;;12.40;99.90;;;;;;6244679;23;20423;-82
2023/03/25 13:24:38;;;;;;;1.88;1.15;;;12.00;99.90;;;;;;6245182;23;20336;-83